Time;durP1;ratioP1;P1;durP2;ratioP2;P2;SDS_P1;SDS_P2;PMS_P1;PMS_P2;Temp;Humidity;BMP_temperature;BMP_pressure;BME280_temperature;BME280_humidity;BME280_pressure;Samples;Min_cycle;Max_cycle;Signal;HPM_P1;HPM_P2
2023/04/01 00:00:58;;;;;;;6.93;2.22;;;;;;;;;;5065208;28;20391;-66
2023/04/01 00:03:25;;;;;;;5.68;2.05;;;;;;;;;;5065995;28;20020;-67
2023/04/01 00:05:50;;;;;;;4.97;1.60;;;;;;;;;;5079816;28;20028;-66
2023/04/01 00:08:16;;;;;;;5.10;1.67;;;;;;;;;;5080316;28;20032;-67
2023/04/01 00:10:41;;;;;;;4.25;1.73;;;;;;;;;;5087092;28;20386;-66
2023/04/01 00:13:07;;;;;;;5.28;1.52;;;;;;;;;;5083354;28;20024;-66
2023/04/01 00:15:32;;;;;;;3.70;1.50;;;;;;;;;;5076141;28;20017;-66
2023/04/01 00:17:58;;;;;;;4.78;1.83;;;;;;;;;;5074411;28;20070;-65
2023/04/01 00:20:24;;;;;;;7.97;1.98;;;;;;;;;;5088353;28;20021;-66
2023/04/01 00:22:50;;;;;;;5.85;2.33;;;;;;;;;;5075489;28;20028;-65
2023/04/01 00:25:15;;;;;;;3.50;1.48;;;;;;;;;;5075080;28;20024;-65
2023/04/01 00:27:40;;;;;;;4.20;1.55;;;;;;;;;;5083297;28;20028;-66
2023/04/01 00:30:07;;;;;;;4.90;1.77;;;;;;;;;;5079013;28;20132;-66
2023/04/01 00:32:32;;;;;;;6.80;2.22;;;;;;;;;;5074620;28;20089;-66
2023/04/01 00:35:00;;;;;;;5.05;1.88;;;;;;;;;;5074650;28;20022;-66
2023/04/01 00:37:26;;;;;;;3.05;1.23;;;;;;;;;;5074593;28;20387;-66
2023/04/01 00:39:51;;;;;;;4.80;1.45;;;;;;;;;;5074255;28;20012;-67
2023/04/01 00:42:17;;;;;;;5.55;1.50;;;;;;;;;;5074264;28;20376;-65
2023/04/01 00:44:44;;;;;;;2.78;1.23;;;;;;;;;;5088007;28;20020;-66
2023/04/01 00:47:10;;;;;;;6.65;2.08;;;;;;;;;;5078557;28;20020;-66
2023/04/01 00:49:38;;;;;;;2.92;1.20;;;;;;;;;;5074437;28;20434;-65
2023/04/01 00:52:05;;;;;;;5.50;1.30;;;;;;;;;;5073631;28;20060;-66
2023/04/01 00:54:30;;;;;;;5.03;1.73;;;;;;;;;;5075085;28;20025;-65
2023/04/01 00:57:03;;;;;;;4.95;1.48;;;;;;;;;;5074026;28;20444;-65
2023/04/01 00:59:33;;;;;;;5.47;1.42;;;;;;;;;;5074243;28;20032;-65
2023/04/01 01:02:00;;;;;;;7.68;2.42;;;;;;;;;;5074149;28;20103;-66
2023/04/01 01:04:25;;;;;;;10.68;1.77;;;;;;;;;;5073852;28;20031;-66
2023/04/01 01:06:58;;;;;;;7.40;2.08;;;;;;;;;;5073949;28;20017;-65
2023/04/01 01:09:30;;;;;;;4.82;1.90;;;;;;;;;;5076478;28;20604;-65
2023/04/01 01:12:13;;;;;;;7.65;1.70;;;;;;;;;;5075011;28;20023;-65
2023/04/01 01:14:38;;;;;;;6.38;1.60;;;;;;;;;;5071522;28;20028;-65
2023/04/01 01:17:14;;;;;;;7.37;1.80;;;;;;;;;;5063994;28;20031;-65
2023/04/01 01:19:55;;;;;;;3.83;1.85;;;;;;;;;;5065645;28;20397;-66
2023/04/01 01:22:47;;;;;;;3.83;1.65;;;;;;;;;;5083140;28;20031;-65
2023/04/01 01:25:17;;;;;;;3.78;1.85;;;;;;;;;;5031340;28;20095;-66
2023/04/01 01:27:49;;;;;;;4.30;1.70;;;;;;;;;;5069872;28;20425;-66
2023/04/01 01:30:15;;;;;;;5.97;2.17;;;;;;;;;;5069528;28;20025;-65
2023/04/01 01:32:43;;;;;;;4.63;1.90;;;;;;;;;;5073544;28;20020;-65
2023/04/01 01:35:22;;;;;;;4.30;2.22;;;;;;;;;;5082596;28;20024;-66
2023/04/01 01:37:51;;;;;;;5.72;1.80;;;;;;;;;;5078357;28;20127;-65
2023/04/01 01:40:16;;;;;;;6.05;2.45;;;;;;;;;;5082013;28;20071;-65
2023/04/01 01:42:45;;;;;;;5.45;2.33;;;;;;;;;;5065843;28;20478;-65
2023/04/01 01:45:12;;;;;;;5.70;2.50;;;;;;;;;;5081143;28;20024;-65
2023/04/01 01:47:37;;;;;;;6.20;1.73;;;;;;;;;;5082902;28;20059;-65
2023/04/01 01:50:03;;;;;;;4.07;1.90;;;;;;;;;;5072634;28;20056;-65
2023/04/01 01:52:29;;;;;;;4.00;1.80;;;;;;;;;;5072847;28;20103;-65
2023/04/01 01:54:55;;;;;;;5.97;1.77;;;;;;;;;;5068837;28;20043;-65
2023/04/01 01:57:23;;;;;;;6.60;2.17;;;;;;;;;;5072026;28;20028;-65
2023/04/01 01:59:49;;;;;;;4.72;1.70;;;;;;;;;;5080632;28;20079;-64
2023/04/01 02:02:15;;;;;;;6.03;1.55;;;;;;;;;;5072750;28;20028;-64
2023/04/01 02:04:42;;;;;;;7.43;1.65;;;;;;;;;;5080916;28;20337;-65
2023/04/01 02:07:10;;;;;;;4.00;1.23;;;;;;;;;;5082291;28;20028;-65
2023/04/01 02:09:36;;;;;;;3.22;1.17;;;;;;;;;;5072200;28;20119;-64
2023/04/01 02:12:06;;;;;;;2.63;1.00;;;;;;;;;;5072314;28;20091;-64
2023/04/01 02:14:41;;;;;;;5.32;1.73;;;;;;;;;;5075560;28;20032;-65
2023/04/01 02:17:11;;;;;;;4.28;1.52;;;;;;;;;;5067885;28;20032;-65
2023/04/01 02:19:49;;;;;;;3.70;1.48;;;;;;;;;;5081709;28;20027;-65
2023/04/01 02:22:17;;;;;;;3.60;1.45;;;;;;;;;;5072572;28;20024;-66
2023/04/01 02:24:43;;;;;;;6.57;2.00;;;;;;;;;;5072675;28;20024;-66
2023/04/01 02:27:12;;;;;;;3.60;1.38;;;;;;;;;;5069048;28;20558;-65
2023/04/01 02:29:37;;;;;;;4.78;1.67;;;;;;;;;;5068948;28;20032;-65
2023/04/01 02:32:03;;;;;;;3.47;1.60;;;;;;;;;;5069057;28;20146;-64
2023/04/01 02:34:29;;;;;;;7.25;1.45;;;;;;;;;;5074604;28;20024;-65
2023/04/01 02:36:55;;;;;;;3.28;1.38;;;;;;;;;;5074332;28;20013;-66
2023/04/01 02:39:20;;;;;;;6.72;1.30;;;;;;;;;;5065336;28;20028;-65
2023/04/01 02:41:46;;;;;;;3.28;1.70;;;;;;;;;;5077028;28;20398;-65
2023/04/01 02:44:12;;;;;;;4.20;1.38;;;;;;;;;;5070632;28;20060;-65
2023/04/01 02:46:38;;;;;;;5.80;1.77;;;;;;;;;;5072393;28;20391;-65
2023/04/01 02:49:03;;;;;;;2.92;1.42;;;;;;;;;;5072486;28;20017;-65
2023/04/01 02:51:29;;;;;;;2.90;1.33;;;;;;;;;;5072062;28;20028;-65
2023/04/01 02:53:54;;;;;;;2.72;1.10;;;;;;;;;;5071171;28;20360;-64
2023/04/01 02:56:19;;;;;;;2.88;1.20;;;;;;;;;;5070083;28;20060;-65
2023/04/01 02:58:45;;;;;;;3.10;1.10;;;;;;;;;;5083803;28;20486;-65
2023/04/01 03:01:10;;;;;;;1.67;0.85;;;;;;;;;;5076096;28;20377;-65
2023/04/01 03:03:35;;;;;;;3.30;1.20;;;;;;;;;;5069045;28;20020;-65
2023/04/01 03:06:05;;;;;;;2.58;1.30;;;;;;;;;;5078189;28;20359;-65
2023/04/01 03:08:30;;;;;;;2.45;0.93;;;;;;;;;;5077349;28;20110;-65
2023/04/01 03:10:56;;;;;;;2.05;1.20;;;;;;;;;;5076476;28;20052;-65
2023/04/01 03:13:21;;;;;;;3.15;1.52;;;;;;;;;;5064950;28;20032;-65
2023/04/01 03:15:46;;;;;;;3.40;1.35;;;;;;;;;;5070911;28;20082;-65
2023/04/01 03:18:11;;;;;;;2.28;1.17;;;;;;;;;;5068844;28;20024;-64
2023/04/01 03:20:37;;;;;;;4.68;1.70;;;;;;;;;;5080058;28;20024;-65
2023/04/01 03:23:02;;;;;;;3.17;1.70;;;;;;;;;;5072016;28;20025;-65
2023/04/01 03:25:28;;;;;;;2.88;1.42;;;;;;;;;;5071951;28;20532;-64
2023/04/01 03:27:53;;;;;;;3.90;1.80;;;;;;;;;;5076144;28;20040;-65
2023/04/01 03:30:19;;;;;;;2.80;1.83;;;;;;;;;;5072353;28;20032;-65
2023/04/01 03:32:44;;;;;;;4.97;1.85;;;;;;;;;;5071587;28;20040;-64
2023/04/01 03:35:10;;;;;;;4.53;1.83;;;;;;;;;;5071891;28;20024;-66
2023/04/01 03:37:35;;;;;;;3.40;2.20;;;;;;;;;;5071277;28;20439;-65
2023/04/01 03:40:00;;;;;;;3.85;2.50;;;;;;;;;;5073460;28;20025;-65
2023/04/01 03:42:26;;;;;;;4.03;1.95;;;;;;;;;;5075093;28;20367;-65
2023/04/01 03:44:51;;;;;;;3.55;1.95;;;;;;;;;;5075451;28;20059;-65
2023/04/01 03:47:16;;;;;;;5.43;2.75;;;;;;;;;;5075230;28;20085;-65
2023/04/01 03:49:42;;;;;;;4.63;2.40;;;;;;;;;;5075535;28;20093;-65
2023/04/01 03:52:09;;;;;;;4.13;2.45;;;;;;;;;;5077740;28;20036;-65
2023/04/01 03:54:34;;;;;;;4.45;2.28;;;;;;;;;;5090378;28;20024;-65
2023/04/01 03:57:00;;;;;;;4.32;2.38;;;;;;;;;;5076966;28;20368;-65
2023/04/01 03:59:25;;;;;;;10.88;2.53;;;;;;;;;;5061016;28;20141;-65
2023/04/01 04:01:50;;;;;;;3.38;1.83;;;;;;;;;;5073988;28;20486;-65
2023/04/01 04:04:15;;;;;;;4.47;2.13;;;;;;;;;;5074965;28;20033;-65
2023/04/01 04:06:41;;;;;;;5.57;2.90;;;;;;;;;;5075107;28;20032;-65
2023/04/01 04:09:06;;;;;;;6.00;2.58;;;;;;;;;;5074817;28;20378;-64
2023/04/01 04:11:32;;;;;;;5.32;3.08;;;;;;;;;;5087768;28;20031;-65
2023/04/01 04:13:58;;;;;;;4.63;2.63;;;;;;;;;;5073827;28;20518;-65
2023/04/01 04:16:23;;;;;;;7.32;2.47;;;;;;;;;;5071513;28;20138;-66
2023/04/01 04:18:48;;;;;;;4.57;2.90;;;;;;;;;;5073297;28;20025;-66
2023/04/01 04:21:14;;;;;;;7.75;2.88;;;;;;;;;;5074696;28;20016;-65
2023/04/01 04:23:40;;;;;;;5.18;2.72;;;;;;;;;;5070157;28;20024;-65
2023/04/01 04:26:07;;;;;;;4.30;2.45;;;;;;;;;;5069778;28;20032;-65
2023/04/01 04:28:32;;;;;;;3.55;2.13;;;;;;;;;;5080758;28;20091;-66
2023/04/01 04:30:58;;;;;;;3.38;2.22;;;;;;;;;;5075211;28;20154;-65
2023/04/01 04:33:24;;;;;;;5.93;2.92;;;;;;;;;;5071633;28;20033;-66
2023/04/01 04:35:49;;;;;;;4.75;2.53;;;;;;;;;;5074277;28;20029;-65
2023/04/01 04:38:15;;;;;;;3.63;1.92;;;;;;;;;;5078638;28;20032;-66
2023/04/01 04:40:41;;;;;;;4.40;1.95;;;;;;;;;;5079570;28;20592;-66
2023/04/01 04:43:06;;;;;;;7.82;2.17;;;;;;;;;;5071492;28;20025;-65
2023/04/01 04:45:32;;;;;;;3.35;2.10;;;;;;;;;;5071964;28;20025;-65
2023/04/01 04:47:57;;;;;;;4.15;2.13;;;;;;;;;;5081112;28;20016;-66
2023/04/01 04:50:23;;;;;;;3.97;2.30;;;;;;;;;;5075910;28;20020;-65
2023/04/01 04:52:48;;;;;;;4.10;2.40;;;;;;;;;;5073107;28;20028;-65
2023/04/01 04:55:14;;;;;;;4.85;2.38;;;;;;;;;;5070252;28;20021;-65
2023/04/01 04:57:40;;;;;;;5.70;2.45;;;;;;;;;;5067653;28;20043;-65
2023/04/01 05:00:06;;;;;;;5.07;2.35;;;;;;;;;;5056470;28;20030;-65
2023/04/01 05:02:31;;;;;;;5.60;2.30;;;;;;;;;;5070941;28;20043;-65
2023/04/01 05:04:56;;;;;;;5.93;2.60;;;;;;;;;;5072791;28;20103;-65
2023/04/01 05:07:22;;;;;;;4.88;1.73;;;;;;;;;;5074308;28;20072;-66
2023/04/01 05:09:47;;;;;;;3.25;2.08;;;;;;;;;;5079850;28;20031;-66
2023/04/01 05:12:12;;;;;;;3.80;1.58;;;;;;;;;;5078930;28;20078;-66
2023/04/01 05:14:38;;;;;;;5.25;1.92;;;;;;;;;;5074553;28;20020;-65
2023/04/01 05:17:03;;;;;;;3.33;1.80;;;;;;;;;;5075884;28;20023;-65
2023/04/01 05:19:28;;;;;;;5.78;2.17;;;;;;;;;;5071159;28;20074;-65
2023/04/01 05:21:54;;;;;;;4.03;1.70;;;;;;;;;;5079172;28;20024;-65
2023/04/01 05:24:19;;;;;;;3.28;1.95;;;;;;;;;;5077918;28;20086;-65
2023/04/01 05:26:44;;;;;;;4.50;1.80;;;;;;;;;;5085664;28;20100;-65
2023/04/01 05:29:10;;;;;;;4.60;2.00;;;;;;;;;;5071126;28;20569;-64
2023/04/01 05:31:35;;;;;;;4.53;2.42;;;;;;;;;;5072499;28;20104;-66
2023/04/01 05:34:00;;;;;;;4.82;2.60;;;;;;;;;;5073342;28;20426;-65
2023/04/01 05:36:26;;;;;;;4.65;2.78;;;;;;;;;;5071110;28;20024;-65
2023/04/01 05:38:54;;;;;;;4.35;2.42;;;;;;;;;;5070403;28;20561;-65
2023/04/01 05:41:19;;;;;;;8.27;3.67;;;;;;;;;;5073720;28;20021;-66
2023/04/01 05:43:45;;;;;;;4.85;3.00;;;;;;;;;;5086069;28;20429;-65
2023/04/01 05:46:10;;;;;;;5.95;3.20;;;;;;;;;;5073642;28;20017;-65
2023/04/01 05:48:35;;;;;;;8.68;3.55;;;;;;;;;;5073329;28;20121;-65
2023/04/01 05:51:01;;;;;;;5.53;3.40;;;;;;;;;;5073314;28;20454;-65
2023/04/01 05:53:26;;;;;;;7.82;3.90;;;;;;;;;;5073326;28;20367;-65
2023/04/01 05:55:52;;;;;;;5.78;4.00;;;;;;;;;;5073415;28;20024;-65
2023/04/01 05:58:17;;;;;;;7.55;4.35;;;;;;;;;;5072828;28;20029;-65
2023/04/01 06:00:42;;;;;;;7.38;4.35;;;;;;;;;;5070920;28;20799;-65
2023/04/01 06:03:07;;;;;;;6.55;4.00;;;;;;;;;;5073016;28;20050;-64
2023/04/01 06:05:38;;;;;;;7.03;4.60;;;;;;;;;;5065106;28;20848;-65
2023/04/01 06:08:17;;;;;;;8.05;4.15;;;;;;;;;;5076279;28;20036;-65
2023/04/01 06:10:48;;;;;;;6.07;4.28;;;;;;;;;;5074272;28;20028;-65
2023/04/01 06:13:37;;;;;;;7.63;3.72;;;;;;;;;;5078400;28;20028;-65
2023/04/01 06:16:11;;;;;;;6.78;3.75;;;;;;;;;;5070198;28;20020;-65
2023/04/01 06:19:03;;;;;;;5.10;3.38;;;;;;;;;;5060209;28;20498;-66
2023/04/01 06:21:28;;;;;;;5.53;3.40;;;;;;;;;;5057956;28;20041;-66
2023/04/01 06:23:56;;;;;;;6.90;3.55;;;;;;;;;;5072781;28;20074;-66
2023/04/01 06:26:30;;;;;;;7.20;4.50;;;;;;;;;;5070867;28;20103;-65
2023/04/01 06:29:13;;;;;;;6.78;4.25;;;;;;;;;;5072837;28;20032;-65
2023/04/01 06:32:02;;;;;;;7.07;4.72;;;;;;;;;;5072605;28;20025;-65
2023/04/01 06:34:51;;;;;;;5.85;3.90;;;;;;;;;;5064066;28;20395;-65
2023/04/01 06:37:29;;;;;;;8.20;4.50;;;;;;;;;;5062664;28;20028;-65
2023/04/01 06:40:09;;;;;;;7.18;4.07;;;;;;;;;;5063342;28;20028;-66
2023/04/01 06:42:42;;;;;;;9.85;4.28;;;;;;;;;;5057881;28;20024;-65
2023/04/01 06:45:29;;;;;;;7.43;4.63;;;;;;;;;;5079729;28;20027;-65
2023/04/01 06:48:05;;;;;;;5.25;3.35;;;;;;;;;;5059445;28;20038;-65
2023/04/01 06:50:45;;;;;;;5.65;3.83;;;;;;;;;;5073322;28;20490;-65
2023/04/01 06:53:16;;;;;;;4.93;3.28;;;;;;;;;;5085349;28;20027;-65
2023/04/01 06:55:45;;;;;;;4.90;3.22;;;;;;;;;;5064869;28;20024;-65
2023/04/01 06:58:18;;;;;;;9.18;3.03;;;;;;;;;;5066234;28;20020;-65
2023/04/01 07:00:46;;;;;;;5.10;3.20;;;;;;;;;;5072216;28;20364;-65
2023/04/01 07:03:14;;;;;;;4.50;2.67;;;;;;;;;;5072164;28;20025;-65
2023/04/01 07:05:39;;;;;;;3.92;2.35;;;;;;;;;;5083992;28;20032;-64
2023/04/01 07:08:09;;;;;;;4.80;2.75;;;;;;;;;;5072982;28;20024;-64
2023/04/01 07:10:37;;;;;;;4.65;3.08;;;;;;;;;;5084375;28;20058;-65
2023/04/01 07:13:05;;;;;;;4.32;2.35;;;;;;;;;;5072369;28;20027;-65
2023/04/01 07:15:36;;;;;;;2.97;2.00;;;;;;;;;;5071697;28;20386;-66
2023/04/01 07:18:18;;;;;;;4.28;2.38;;;;;;;;;;5071346;28;20056;-66
2023/04/01 07:20:44;;;;;;;3.50;2.15;;;;;;;;;;5071556;28;20402;-65
2023/04/01 07:23:19;;;;;;;3.13;1.83;;;;;;;;;;5071798;28;20077;-67
2023/04/01 07:25:45;;;;;;;4.40;2.10;;;;;;;;;;5071712;28;20027;-65
2023/04/01 07:28:12;;;;;;;3.60;2.20;;;;;;;;;;5071780;28;20032;-69
2023/04/01 07:31:00;;;;;;;6.82;1.80;;;;;;;;;;5071642;28;20532;-65
2023/04/01 07:33:28;;;;;;;13.50;2.13;;;;;;;;;;5036149;28;20391;-65
2023/04/01 07:36:16;;;;;;;5.32;2.25;;;;;;;;;;5072789;28;20027;-65
2023/04/01 07:38:55;;;;;;;3.30;2.17;;;;;;;;;;5050500;28;20047;-65
2023/04/01 07:41:32;;;;;;;4.15;2.58;;;;;;;;;;5070962;28;20028;-65
2023/04/01 07:44:04;;;;;;;3.80;2.03;;;;;;;;;;5071360;28;20033;-65
2023/04/01 07:46:30;;;;;;;4.05;2.50;;;;;;;;;;5071497;28;20028;-65
2023/04/01 07:48:55;;;;;;;3.55;2.20;;;;;;;;;;5072112;28;20058;-66
2023/04/01 07:51:23;;;;;;;3.47;1.90;;;;;;;;;;5071572;28;20110;-65
2023/04/01 07:53:49;;;;;;;3.40;2.28;;;;;;;;;;5071593;28;20351;-65
2023/04/01 07:56:19;;;;;;;5.13;2.50;;;;;;;;;;5071589;28;20016;-65
2023/04/01 07:58:44;;;;;;;4.53;2.42;;;;;;;;;;5071506;28;20036;-66
2023/04/01 08:01:12;;;;;;;3.20;2.10;;;;;;;;;;5072026;28;20032;-65
2023/04/01 08:03:37;;;;;;;3.58;1.92;;;;;;;;;;5071295;28;20278;-65
2023/04/01 08:06:07;;;;;;;4.18;1.88;;;;;;;;;;5074573;28;20417;-65
2023/04/01 08:08:32;;;;;;;3.03;1.88;;;;;;;;;;5071721;28;20032;-65
2023/04/01 08:11:03;;;;;;;2.60;1.53;;;;;;;;;;5086294;28;20040;-66
2023/04/01 08:13:38;;;;;;;2.97;1.75;;;;;;;;;;5081791;28;20278;-65
2023/04/01 08:16:19;;;;;;;3.33;1.90;;;;;;;;;;5071216;28;20499;-65
2023/04/01 08:18:58;;;;;;;2.88;1.70;;;;;;;;;;5071029;28;20429;-65
2023/04/01 08:21:41;;;;;;;4.38;2.05;;;;;;;;;;5071210;28;20056;-65
2023/04/01 08:24:27;;;;;;;2.60;1.60;;;;;;;;;;5071455;28;20390;-66
2023/04/01 08:26:55;;;;;;;3.65;1.88;;;;;;;;;;5075596;28;20467;-65
2023/04/01 08:29:21;;;;;;;3.03;2.08;;;;;;;;;;5079526;28;20471;-65
2023/04/01 08:31:58;;;;;;;3.72;1.55;;;;;;;;;;5074424;28;20032;-66
2023/04/01 08:34:26;;;;;;;3.80;2.30;;;;;;;;;;5074304;28;20483;-65
2023/04/01 08:36:54;;;;;;;3.65;1.70;;;;;;;;;;5074553;28;20031;-65
2023/04/01 08:39:30;;;;;;;2.58;1.65;;;;;;;;;;5074373;28;20036;-65
2023/04/01 08:42:05;;;;;;;2.45;1.58;;;;;;;;;;5074790;28;20025;-66
2023/04/01 08:44:30;;;;;;;;;;;;;;;;;;5074614;28;20055;-65
2023/04/01 08:47:01;;;;;;;3.55;2.42;;;;;;;;;;5080788;28;20008;-66
2023/04/01 08:49:29;;;;;;;3.35;2.00;;;;;;;;;;5072294;28;20060;-66
2023/04/01 08:52:19;;;;;;;3.85;2.08;;;;;;;;;;5075931;28;20028;-66
2023/04/01 08:54:51;;;;;;;6.20;2.20;;;;;;;;;;5071926;28;20043;-66
2023/04/01 08:57:35;;;;;;;3.45;2.47;;;;;;;;;;5074075;28;20032;-66
2023/04/01 09:00:12;;;;;;;3.65;2.20;;;;;;;;;;5071974;28;20040;-65
2023/04/01 09:02:55;;;;;;;4.30;2.85;;;;;;;;;;5072356;28;20086;-65
2023/04/01 09:05:36;;;;;;;3.88;2.40;;;;;;;;;;5071893;28;20106;-65
2023/04/01 09:08:08;;;;;;;3.53;2.20;;;;;;;;;;5077509;28;20670;-65
2023/04/01 09:10:33;;;;;;;3.17;1.85;;;;;;;;;;5086090;28;20028;-66
2023/04/01 09:13:06;;;;;;;4.47;2.00;;;;;;;;;;5083157;28;20162;-65
2023/04/01 09:15:35;;;;;;;3.77;2.37;;;;;;;;;;5074162;28;20073;-65
2023/04/01 09:18:09;;;;;;;3.10;2.25;;;;;;;;;;5086852;28;20120;-66
2023/04/01 09:20:46;;;;;;;3.13;2.15;;;;;;;;;;5073985;28;20490;-65
2023/04/01 09:23:30;;;;;;;4.28;2.60;;;;;;;;;;5086279;28;20045;-65
2023/04/01 09:26:13;;;;;;;3.57;2.50;;;;;;;;;;5080467;28;20056;-65
2023/04/01 09:28:41;;;;;;;4.85;2.70;;;;;;;;;;5082476;28;20277;-64
2023/04/01 09:31:10;;;;;;;5.30;2.55;;;;;;;;;;5068980;28;20944;-66
2023/04/01 09:33:54;;;;;;;4.20;2.90;;;;;;;;;;5056066;28;20450;-65
2023/04/01 09:36:19;;;;;;;3.90;2.83;;;;;;;;;;5058671;28;20028;-66
2023/04/01 09:38:58;;;;;;;4.33;3.00;;;;;;;;;;5083130;28;20026;-65
2023/04/01 09:41:30;;;;;;;4.22;2.70;;;;;;;;;;5074803;28;20282;-65
2023/04/01 09:44:03;;;;;;;4.30;2.38;;;;;;;;;;5081839;28;20535;-65
2023/04/01 09:46:47;;;;;;;4.07;2.70;;;;;;;;;;5076721;28;20016;-65
2023/04/01 09:49:18;;;;;;;4.95;2.80;;;;;;;;;;5086195;28;20081;-65
2023/04/01 09:51:54;;;;;;;4.55;3.00;;;;;;;;;;5073891;28;20028;-65
2023/04/01 09:54:28;;;;;;;3.95;3.25;;;;;;;;;;5074206;28;20033;-65
2023/04/01 09:57:14;;;;;;;4.07;2.92;;;;;;;;;;5074517;28;20020;-65
2023/04/01 09:59:45;;;;;;;3.67;2.80;;;;;;;;;;5072453;28;20051;-65
2023/04/01 10:02:13;;;;;;;;;;;;;;;;;;5073664;28;20043;-64
2023/04/01 10:04:57;;;;;;;4.03;3.15;;;;;;;;;;5076612;28;19912;-65
2023/04/01 10:07:22;;;;;;;4.28;3.65;;;;;;;;;;5075052;28;20031;-65
2023/04/01 10:10:05;;;;;;;4.80;3.50;;;;;;;;;;5078511;28;20024;-65
2023/04/01 10:12:39;;;;;;;5.65;3.83;;;;;;;;;;5081671;28;20020;-65
2023/04/01 10:15:23;;;;;;;4.45;3.33;;;;;;;;;;5082998;28;20483;-65
2023/04/01 10:18:07;;;;;;;5.75;4.25;;;;;;;;;;5075725;28;20028;-65
2023/04/01 10:20:32;;;;;;;6.00;4.37;;;;;;;;;;5076250;28;20455;-66
2023/04/01 10:23:16;;;;;;;4.68;3.30;;;;;;;;;;5078035;28;20032;-65
2023/04/01 10:26:03;;;;;;;5.50;3.83;;;;;;;;;;5081872;28;20525;-66
2023/04/01 10:28:41;;;;;;;5.10;3.78;;;;;;;;;;5082065;28;20056;-65
2023/04/01 10:31:15;;;;;;;4.93;4.00;;;;;;;;;;5074423;28;20054;-65
2023/04/01 10:33:59;;;;;;;4.95;3.47;;;;;;;;;;5075921;28;20082;-65
2023/04/01 10:36:24;;;;;;;4.85;3.15;;;;;;;;;;5083088;28;20032;-65
2023/04/01 10:38:52;;;;;;;4.83;3.10;;;;;;;;;;5074245;28;20078;-65
2023/04/01 10:41:36;;;;;;;4.05;3.10;;;;;;;;;;5068795;28;21294;-65
2023/04/01 10:44:20;;;;;;;4.70;3.65;;;;;;;;;;5033203;28;20090;-65
2023/04/01 10:47:02;;;;;;;4.80;3.33;;;;;;;;;;5042692;28;20028;-65
2023/04/01 10:49:33;;;;;;;3.75;2.92;;;;;;;;;;5064701;28;20024;-65
2023/04/01 10:52:04;;;;;;;4.90;3.63;;;;;;;;;;5069239;28;20039;-65
2023/04/01 10:54:36;;;;;;;4.90;3.40;;;;;;;;;;5076339;28;20024;-65
2023/04/01 10:57:04;;;;;;;8.48;3.85;;;;;;;;;;5070558;28;20028;-65
2023/04/01 10:59:35;;;;;;;3.92;2.80;;;;;;;;;;5078044;28;20482;-65
2023/04/01 11:02:04;;;;;;;4.22;3.00;;;;;;;;;;5069522;28;20017;-66
2023/04/01 11:04:48;;;;;;;4.35;2.65;;;;;;;;;;5076918;28;20029;-65
2023/04/01 11:07:16;;;;;;;4.05;2.90;;;;;;;;;;5078355;28;20856;-65
2023/04/01 11:10:00;;;;;;;2.92;1.90;;;;;;;;;;5080972;28;20074;-64
2023/04/01 11:12:31;;;;;;;3.33;2.05;;;;;;;;;;5075357;28;20037;-68
2023/04/01 11:14:56;;;;;;;3.65;2.17;;;;;;;;;;5060097;28;20141;-66
2023/04/01 11:17:30;;;;;;;3.70;2.13;;;;;;;;;;5087596;28;20546;-66
2023/04/01 11:20:15;;;;;;;3.45;2.30;;;;;;;;;;5070585;28;20772;-66
2023/04/01 11:22:59;;;;;;;4.20;2.75;;;;;;;;;;5083889;28;20032;-65
2023/04/01 11:25:25;;;;;;;5.03;3.13;;;;;;;;;;5070579;28;20017;-65
2023/04/01 11:28:16;;;;;;;4.93;2.72;;;;;;;;;;5071861;28;21292;-65
2023/04/01 11:31:05;;;;;;;7.40;2.55;;;;;;;;;;5033355;28;20033;-65
2023/04/01 11:33:35;;;;;;;5.00;2.78;;;;;;;;;;5059729;28;20119;-65
2023/04/01 11:36:11;;;;;;;5.22;2.70;;;;;;;;;;5074970;28;20029;-65
2023/04/01 11:38:39;;;;;;;3.60;2.58;;;;;;;;;;5081338;28;20509;-65
2023/04/01 11:41:11;;;;;;;4.43;2.58;;;;;;;;;;5071599;28;20024;-66
2023/04/01 11:43:54;;;;;;;3.70;2.28;;;;;;;;;;5073138;28;20032;-66
2023/04/01 11:46:31;;;;;;;5.22;2.25;;;;;;;;;;5069844;28;20044;-65
2023/04/01 11:49:14;;;;;;;4.43;2.30;;;;;;;;;;5080509;28;20024;-65
2023/04/01 11:52:09;;;;;;;4.43;2.33;;;;;;;;;;5070591;28;20490;-65
2023/04/01 11:54:34;;;;;;;2.95;2.00;;;;;;;;;;5056536;28;20282;-65
2023/04/01 11:57:05;;;;;;;2.60;1.80;;;;;;;;;;5070260;28;20017;-66
2023/04/01 11:59:44;;;;;;;3.95;2.40;;;;;;;;;;5077386;28;20301;-64
2023/04/01 12:02:18;;;;;;;3.33;2.20;;;;;;;;;;5085595;28;20378;-65
2023/04/01 12:04:43;;;;;;;;;;;;;;;;;;5079721;28;20598;-64
2023/04/01 12:07:12;;;;;;;3.80;2.60;;;;;;;;;;5080771;28;19924;-65
2023/04/01 12:09:57;;;;;;;4.05;2.88;;;;;;;;;;5075547;28;20693;-65
2023/04/01 12:12:32;;;;;;;3.65;2.33;;;;;;;;;;5050684;28;20036;-65
2023/04/01 12:15:16;;;;;;;3.15;2.10;;;;;;;;;;5074251;28;20082;-65
2023/04/01 12:18:00;;;;;;;3.63;2.17;;;;;;;;;;5071701;28;20035;-64
2023/04/01 12:20:33;;;;;;;3.70;1.80;;;;;;;;;;5074119;28;20085;-65
2023/04/01 12:23:17;;;;;;;3.92;2.30;;;;;;;;;;5076833;28;20033;-65
2023/04/01 12:26:00;;;;;;;5.15;2.55;;;;;;;;;;5083513;28;20028;-65
2023/04/01 12:28:36;;;;;;;4.13;2.63;;;;;;;;;;5080950;28;20551;-65
2023/04/01 12:31:01;;;;;;;7.80;2.97;;;;;;;;;;5074881;28;20017;-65
2023/04/01 12:33:59;;;;;;;5.18;3.80;;;;;;;;;;5080496;28;20024;-65
2023/04/01 12:36:33;;;;;;;6.60;3.92;;;;;;;;;;5061969;28;20386;-65
2023/04/01 12:39:20;;;;;;;5.97;4.03;;;;;;;;;;5079979;28;20032;-65
2023/04/01 12:41:48;;;;;;;7.53;4.90;;;;;;;;;;5073767;28;20041;-65
2023/04/01 12:44:23;;;;;;;6.68;4.32;;;;;;;;;;5079289;28;20540;-65
2023/04/01 12:47:13;;;;;;;5.93;4.50;;;;;;;;;;5073445;28;20063;-65
2023/04/01 12:49:44;;;;;;;5.22;4.00;;;;;;;;;;5077408;28;20032;-65
2023/04/01 12:52:11;;;;;;;5.22;3.58;;;;;;;;;;5073885;28;20029;-65
2023/04/01 12:55:03;;;;;;;6.60;3.85;;;;;;;;;;5078398;28;20546;-65
2023/04/01 12:57:34;;;;;;;5.60;4.43;;;;;;;;;;5073521;28;20083;-65
2023/04/01 13:00:11;;;;;;;7.75;5.50;;;;;;;;;;5075952;28;20037;-65
2023/04/01 13:02:46;;;;;;;8.00;5.10;;;;;;;;;;5074095;28;20032;-65
2023/04/01 13:05:12;;;;;;;5.38;4.72;;;;;;;;;;5077158;28;20016;-64
2023/04/01 13:08:10;;;;;;;8.85;5.88;;;;;;;;;;5083338;28;20044;-64
2023/04/01 13:10:44;;;;;;;5.70;4.43;;;;;;;;;;5039957;28;20036;-64
2023/04/01 13:13:16;;;;;;;6.85;5.05;;;;;;;;;;5087632;28;20036;-65
2023/04/01 13:15:43;;;;;;;8.35;4.93;;;;;;;;;;5078663;28;20860;-64
2023/04/01 13:18:11;;;;;;;6.82;4.50;;;;;;;;;;5074031;28;20037;-64
2023/04/01 13:20:36;;;;;;;6.18;4.38;;;;;;;;;;5083907;28;20078;-64
2023/04/01 13:23:15;;;;;;;5.95;4.50;;;;;;;;;;5073876;28;20412;-64
2023/04/01 13:25:40;;;;;;;6.30;5.35;;;;;;;;;;5070092;28;20459;-64
2023/04/01 13:28:08;;;;;;;7.15;5.30;;;;;;;;;;5074413;28;20157;-65
2023/04/01 13:30:59;;;;;;;7.68;5.75;;;;;;;;;;5084845;28;20024;-65
2023/04/01 13:33:43;;;;;;;9.55;5.95;;;;;;;;;;5070077;28;20479;-65
2023/04/01 13:36:11;;;;;;;7.13;5.60;;;;;;;;;;5075182;28;20360;-66
2023/04/01 13:38:42;;;;;;;5.45;4.63;;;;;;;;;;5077097;28;20055;-66
2023/04/01 13:41:14;;;;;;;6.88;4.60;;;;;;;;;;5078941;28;20036;-65
2023/04/01 13:43:47;;;;;;;7.35;5.18;;;;;;;;;;5082456;28;20035;-66
2023/04/01 13:46:28;;;;;;;6.93;5.28;;;;;;;;;;5072972;28;20479;-65
2023/04/01 13:49:11;;;;;;;6.43;4.32;;;;;;;;;;5073343;28;20391;-65
2023/04/01 13:51:55;;;;;;;7.68;4.40;;;;;;;;;;5074458;28;20016;-65
2023/04/01 13:54:33;;;;;;;6.90;4.57;;;;;;;;;;5077770;28;20021;-66
2023/04/01 13:57:16;;;;;;;4.57;3.92;;;;;;;;;;5072369;28;20008;-66
2023/04/01 13:59:50;;;;;;;5.67;4.27;;;;;;;;;;5076669;28;20024;-66
2023/04/01 14:02:36;;;;;;;5.55;3.95;;;;;;;;;;5075345;28;20029;-65
2023/04/01 14:05:02;;;;;;;6.32;3.88;;;;;;;;;;5072419;28;20041;-65
2023/04/01 14:07:30;;;;;;;5.30;4.25;;;;;;;;;;5071836;28;20037;-65
2023/04/01 14:10:01;;;;;;;6.18;4.38;;;;;;;;;;5074115;28;20043;-65
2023/04/01 14:12:35;;;;;;;6.55;4.03;;;;;;;;;;5071763;28;20486;-65
2023/04/01 14:15:03;;;;;;;4.63;3.50;;;;;;;;;;5075739;28;20585;-65
2023/04/01 14:17:35;;;;;;;5.00;3.60;;;;;;;;;;5073254;28;20025;-65
2023/04/01 14:20:20;;;;;;;5.97;3.40;;;;;;;;;;5073364;28;20086;-65
2023/04/01 14:22:50;;;;;;;4.90;3.58;;;;;;;;;;5076037;28;20083;-65
2023/04/01 14:25:27;;;;;;;4.75;3.72;;;;;;;;;;5071898;28;20025;-65
2023/04/01 14:28:11;;;;;;;5.43;4.10;;;;;;;;;;5070468;28;21440;-65
2023/04/01 14:30:55;;;;;;;4.93;3.57;;;;;;;;;;5070984;28;20090;-65
2023/04/01 14:33:21;;;;;;;4.35;2.95;;;;;;;;;;5071754;28;20098;-65
2023/04/01 14:35:52;;;;;;;4.63;3.50;;;;;;;;;;5075309;28;20028;-65
2023/04/01 14:38:36;;;;;;;3.88;2.78;;;;;;;;;;5053782;28;20785;-65
2023/04/01 14:41:01;;;;;;;4.68;3.20;;;;;;;;;;5071787;28;20020;-65
2023/04/01 14:43:45;;;;;;;4.50;3.00;;;;;;;;;;5075417;28;20119;-65
2023/04/01 14:46:16;;;;;;;6.28;3.65;;;;;;;;;;5073102;28;20274;-65
2023/04/01 14:48:57;;;;;;;4.95;3.63;;;;;;;;;;5075029;28;20048;-65
2023/04/01 14:51:29;;;;;;;4.25;3.30;;;;;;;;;;5070301;28;20025;-65
2023/04/01 14:54:13;;;;;;;4.95;3.65;;;;;;;;;;5073646;28;20050;-65
2023/04/01 14:56:38;;;;;;;4.03;3.08;;;;;;;;;;5078613;28;20035;-65
2023/04/01 14:59:13;;;;;;;6.35;3.00;;;;;;;;;;5074816;28;20035;-65
2023/04/01 15:01:42;;;;;;;4.50;3.30;;;;;;;;;;5077375;28;20543;-65
2023/04/01 15:04:07;;;;;;;3.95;3.05;;;;;;;;;;5078683;28;20036;-65
2023/04/01 15:06:40;;;;;;;5.03;3.00;;;;;;;;;;5076350;28;20029;-65
2023/04/01 15:09:44;;;;;;;4.43;2.80;;;;;;;;;;5075166;28;20088;-65